GGFTA EGJB-EGJB

Flight info

Callsign GGFTA
Flight time 0h 5m
Altitude 3000
Route BASIK
Aircraft P28A/L-SDFRY/C

Departure

Time 2026-04-24 13:21
Airport Guernsey Airport (EGJB)

Arrival

Time 2026-04-24 13:27
Airport Guernsey Airport (EGJB)
Time Latitude Longitude Altitude Speed Heading
2026-04-24 13:16 49.43291 -2.60183 330 ft 0 kts 76°
2026-04-24 13:20 49.43296 -2.60183 327 ft 2 kts 304°
2026-04-24 13:20 49.43332 -2.60235 332 ft 12 kts 275°
2026-04-24 13:20 49.43329 -2.60435 328 ft 26 kts 266°
2026-04-24 13:20 49.43378 -2.60644 323 ft 26 kts 348°
2026-04-24 13:21 49.43484 -2.60532 324 ft 26 kts 85°
2026-04-24 13:21 49.43503 -2.60022 392 ft 62 kts 85°
2026-04-24 13:21 49.43524 -2.59339 690 ft 57 kts 78°
2026-04-24 13:21 49.43619 -2.58715 957 ft 64 kts 83°
2026-04-24 13:22 49.43683 -2.57990 1218 ft 72 kts 89°
2026-04-24 13:22 49.43376 -2.57267 1179 ft 95 kts 145°
2026-04-24 13:22 49.42700 -2.57183 1218 ft 98 kts 176°
2026-04-24 13:22 49.42008 -2.57295 1181 ft 99 kts 175°
2026-04-24 13:23 49.41344 -2.57431 1209 ft 98 kts 180°
2026-04-24 13:23 49.40936 -2.58277 1136 ft 113 kts 270°
2026-04-24 13:23 49.40916 -2.59469 1153 ft 113 kts 269°
2026-04-24 13:23 49.40908 -2.60684 1184 ft 113 kts 270°
2026-04-24 13:24 49.40893 -2.61868 1250 ft 111 kts 268°
2026-04-24 13:24 49.40870 -2.63062 1246 ft 114 kts 269°
2026-04-24 13:24 49.40940 -2.64265 1162 ft 115 kts 299°
2026-04-24 13:24 49.41516 -2.64809 1148 ft 90 kts
2026-04-24 13:25 49.42127 -2.64961 1120 ft 89 kts 360°
2026-04-24 13:25 49.42719 -2.65147 1111 ft 88 kts
2026-04-24 13:25 49.43295 -2.65161 971 ft 78 kts 34°
2026-04-24 13:25 49.43428 -2.64451 754 ft 75 kts 91°
2026-04-24 13:26 49.43415 -2.63692 641 ft 63 kts 85°
2026-04-24 13:26 49.43425 -2.63091 575 ft 54 kts 83°
2026-04-24 13:26 49.43439 -2.62496 510 ft 57 kts 81°
2026-04-24 13:26 49.43450 -2.61916 430 ft 54 kts 83°
2026-04-24 13:27 49.43467 -2.61340 357 ft 53 kts 80°
2026-04-24 13:27 49.43478 -2.60860 317 ft 33 kts 88°
2026-04-24 13:27 49.43496 -2.60363 371 ft 61 kts 80°
2026-04-24 13:27 49.43499 -2.59698 601 ft 63 kts 87°
2026-04-24 13:28 49.43523 -2.59040 868 ft 63 kts 82°
2026-04-24 13:28 49.43578 -2.58346 1131 ft 71 kts 85°
2026-04-24 13:28 49.43463 -2.57587 1166 ft 83 kts 126°
2026-04-24 13:28 49.42878 -2.57306 1206 ft 96 kts 174°
2026-04-24 13:29 49.42208 -2.57452 1168 ft 100 kts 173°
2026-04-24 13:29 49.41502 -2.57521 1136 ft 103 kts 173°
2026-04-24 13:29 49.40906 -2.58112 1113 ft 116 kts 248°
2026-04-24 13:29 49.40851 -2.59352 1082 ft 118 kts 269°
2026-04-24 13:30 49.40828 -2.60604 1083 ft 120 kts 268°
2026-04-24 13:30 49.40795 -2.61881 1096 ft 120 kts 268°
2026-04-24 13:30 49.40754 -2.63187 1027 ft 125 kts 268°
2026-04-24 13:30 49.40770 -2.64494 974 ft 118 kts 291°
2026-04-24 13:31 49.41291 -2.65137 943 ft 88 kts
2026-04-24 13:31 49.41888 -2.65266 944 ft 84 kts
2026-04-24 13:31 49.42433 -2.65396 1022 ft 75 kts
2026-04-24 13:31 49.42958 -2.65480 977 ft 76 kts 20°
2026-04-24 13:32 49.43290 -2.64968 863 ft 74 kts 72°
2026-04-24 13:32 49.43354 -2.64218 760 ft 64 kts 82°
2026-04-24 13:32 49.43386 -2.63585 677 ft 56 kts 81°
2026-04-24 13:32 49.43415 -2.62962 545 ft 61 kts 81°
2026-04-24 13:33 49.43439 -2.62353 479 ft 55 kts 82°
2026-04-24 13:33 49.43454 -2.61769 414 ft 56 kts 79°
2026-04-24 13:33 49.43471 -2.61181 332 ft 51 kts 81°
2026-04-24 13:33 49.43479 -2.60784 319 ft 32 kts 88°
2026-04-24 13:34 49.43496 -2.60220 416 ft 63 kts 88°
2026-04-24 13:34 49.43487 -2.59538 675 ft 65 kts 88°
2026-04-24 13:34 49.43508 -2.58878 1000 ft 62 kts 86°
2026-04-24 13:34 49.43565 -2.58194 1220 ft 69 kts 86°
2026-04-24 13:35 49.43440 -2.57472 1142 ft 82 kts 129°
2026-04-24 13:35 49.42866 -2.57295 1133 ft 93 kts 185°
2026-04-24 13:35 49.42240 -2.57482 1064 ft 92 kts 178°
2026-04-24 13:35 49.41590 -2.57678 975 ft 102 kts 194°
2026-04-24 13:36 49.41385 -2.58679 970 ft 103 kts 272°
2026-04-24 13:36 49.41367 -2.59758 944 ft 103 kts 269°
2026-04-24 13:36 49.41284 -2.60857 922 ft 104 kts 264°
2026-04-24 13:36 49.41189 -2.61993 854 ft 110 kts 266°
2026-04-24 13:37 49.41132 -2.63158 848 ft 107 kts 266°
2026-04-24 13:37 49.41259 -2.64218 853 ft 99 kts 324°
2026-04-24 13:37 49.41860 -2.64578 981 ft 91 kts
2026-04-24 13:37 49.42432 -2.64765 915 ft 77 kts
2026-04-24 13:38 49.42914 -2.64882 855 ft 65 kts
2026-04-24 13:38 49.43307 -2.64684 688 ft 63 kts 54°
2026-04-24 13:38 49.43365 -2.64106 647 ft 48 kts 80°
2026-04-24 13:38 49.43408 -2.63540 639 ft 61 kts 78°
2026-04-24 13:39 49.43426 -2.62889 567 ft 60 kts 84°
2026-04-24 13:39 49.43441 -2.62269 465 ft 56 kts 81°
2026-04-24 13:39 49.43458 -2.61668 407 ft 58 kts 81°
2026-04-24 13:39 49.43473 -2.61087 317 ft 44 kts 83°
2026-04-24 13:40 49.43482 -2.60758 319 ft 20 kts 89°
2026-04-24 13:40 49.43393 -2.60655 322 ft 27 kts 176°
2026-04-24 13:40 49.43332 -2.60420 328 ft 28 kts 89°
2026-04-24 13:40 49.43311 -2.60203 330 ft 15 kts 174°
2026-04-24 13:41 49.43295 -2.60178 330 ft 1 kts 156°
2026-04-24 13:41 49.43289 -2.60180 330 ft 0 kts 214°